sensor_id;sensor_type;location;lat;lon;timestamp;P1;durP1;ratioP1;P2;durP2;ratioP2
15317;SDS011;7759;52.528;13.346;2022-12-07T00:01:44;7.50;;;4.00;;
15317;SDS011;7759;52.528;13.346;2022-12-07T00:04:12;7.20;;;3.47;;
15317;SDS011;7759;52.528;13.346;2022-12-07T00:06:39;3.07;;;2.10;;
15317;SDS011;7759;52.528;13.346;2022-12-07T00:09:06;4.50;;;1.90;;
15317;SDS011;7759;52.528;13.346;2022-12-07T00:11:32;4.43;;;2.53;;
15317;SDS011;7759;52.528;13.346;2022-12-07T00:14:00;7.93;;;4.47;;
15317;SDS011;7759;52.528;13.346;2022-12-07T00:16:27;6.83;;;3.57;;
15317;SDS011;7759;52.528;13.346;2022-12-07T00:18:54;14.67;;;4.63;;
15317;SDS011;7759;52.528;13.346;2022-12-07T00:21:21;5.97;;;3.67;;
15317;SDS011;7759;52.528;13.346;2022-12-07T00:23:48;4.90;;;3.00;;
15317;SDS011;7759;52.528;13.346;2022-12-07T00:26:16;5.63;;;3.53;;
15317;SDS011;7759;52.528;13.346;2022-12-07T00:28:45;5.50;;;3.23;;
15317;SDS011;7759;52.528;13.346;2022-12-07T00:31:12;7.27;;;4.20;;
15317;SDS011;7759;52.528;13.346;2022-12-07T00:33:39;5.03;;;2.87;;
15317;SDS011;7759;52.528;13.346;2022-12-07T00:36:15;5.73;;;3.00;;
15317;SDS011;7759;52.528;13.346;2022-12-07T00:38:44;4.63;;;2.73;;
15317;SDS011;7759;52.528;13.346;2022-12-07T00:41:13;6.13;;;3.83;;
15317;SDS011;7759;52.528;13.346;2022-12-07T00:43:40;5.33;;;3.40;;
15317;SDS011;7759;52.528;13.346;2022-12-07T00:46:06;5.47;;;3.40;;
15317;SDS011;7759;52.528;13.346;2022-12-07T00:48:32;7.00;;;3.77;;
15317;SDS011;7759;52.528;13.346;2022-12-07T00:50:58;5.23;;;2.80;;
15317;SDS011;7759;52.528;13.346;2022-12-07T00:53:24;8.00;;;4.57;;
15317;SDS011;7759;52.528;13.346;2022-12-07T00:55:50;6.23;;;3.60;;
15317;SDS011;7759;52.528;13.346;2022-12-07T00:58:17;4.97;;;3.17;;
15317;SDS011;7759;52.528;13.346;2022-12-07T01:00:43;4.83;;;3.37;;
15317;SDS011;7759;52.528;13.346;2022-12-07T01:03:10;4.93;;;2.73;;
15317;SDS011;7759;52.528;13.346;2022-12-07T01:05:36;3.90;;;2.80;;
15317;SDS011;7759;52.528;13.346;2022-12-07T01:08:02;5.90;;;3.00;;
15317;SDS011;7759;52.528;13.346;2022-12-07T01:10:28;5.13;;;3.07;;
15317;SDS011;7759;52.528;13.346;2022-12-07T01:12:55;4.40;;;2.87;;
15317;SDS011;7759;52.528;13.346;2022-12-07T01:15:21;3.37;;;2.13;;
15317;SDS011;7759;52.528;13.346;2022-12-07T01:17:47;4.17;;;2.50;;
15317;SDS011;7759;52.528;13.346;2022-12-07T01:20:13;5.60;;;3.50;;
15317;SDS011;7759;52.528;13.346;2022-12-07T01:22:41;7.77;;;3.87;;
15317;SDS011;7759;52.528;13.346;2022-12-07T01:25:07;2.57;;;1.70;;
15317;SDS011;7759;52.528;13.346;2022-12-07T01:27:34;3.30;;;1.90;;
15317;SDS011;7759;52.528;13.346;2022-12-07T01:30:00;3.93;;;2.43;;
15317;SDS011;7759;52.528;13.346;2022-12-07T01:32:26;3.23;;;2.47;;
15317;SDS011;7759;52.528;13.346;2022-12-07T01:34:52;6.07;;;3.00;;
15317;SDS011;7759;52.528;13.346;2022-12-07T01:37:18;3.53;;;2.20;;
15317;SDS011;7759;52.528;13.346;2022-12-07T01:39:47;4.10;;;2.63;;
15317;SDS011;7759;52.528;13.346;2022-12-07T01:42:13;5.30;;;2.93;;
15317;SDS011;7759;52.528;13.346;2022-12-07T01:47:24;3.70;;;2.43;;
15317;SDS011;7759;52.528;13.346;2022-12-07T01:49:50;3.77;;;2.37;;
15317;SDS011;7759;52.528;13.346;2022-12-07T01:52:26;4.00;;;2.70;;
15317;SDS011;7759;52.528;13.346;2022-12-07T01:54:54;3.93;;;2.13;;
15317;SDS011;7759;52.528;13.346;2022-12-07T01:57:22;3.90;;;2.40;;
15317;SDS011;7759;52.528;13.346;2022-12-07T01:59:49;4.27;;;2.40;;
15317;SDS011;7759;52.528;13.346;2022-12-07T02:02:18;2.83;;;1.90;;
15317;SDS011;7759;52.528;13.346;2022-12-07T02:04:44;5.27;;;2.30;;
15317;SDS011;7759;52.528;13.346;2022-12-07T02:07:10;3.53;;;2.27;;
15317;SDS011;7759;52.528;13.346;2022-12-07T02:09:36;4.53;;;2.63;;
15317;SDS011;7759;52.528;13.346;2022-12-07T02:12:02;3.70;;;2.53;;
15317;SDS011;7759;52.528;13.346;2022-12-07T02:14:29;3.13;;;1.60;;
15317;SDS011;7759;52.528;13.346;2022-12-07T02:19:33;2.50;;;1.80;;
15317;SDS011;7759;52.528;13.346;2022-12-07T02:24:52;2.67;;;2.00;;
15317;SDS011;7759;52.528;13.346;2022-12-07T02:30:08;3.70;;;1.97;;
15317;SDS011;7759;52.528;13.346;2022-12-07T02:32:55;2.00;;;1.43;;
15317;SDS011;7759;52.528;13.346;2022-12-07T02:35:30;4.90;;;2.70;;
15317;SDS011;7759;52.528;13.346;2022-12-07T02:37:58;3.73;;;1.90;;
15317;SDS011;7759;52.528;13.346;2022-12-07T02:40:33;3.13;;;1.80;;
15317;SDS011;7759;52.528;13.346;2022-12-07T02:43:06;3.40;;;2.17;;
15317;SDS011;7759;52.528;13.346;2022-12-07T02:45:34;2.27;;;1.50;;
15317;SDS011;7759;52.528;13.346;2022-12-07T02:48:01;2.33;;;1.63;;
15317;SDS011;7759;52.528;13.346;2022-12-07T02:50:28;3.53;;;1.87;;
15317;SDS011;7759;52.528;13.346;2022-12-07T02:52:54;2.43;;;1.90;;
15317;SDS011;7759;52.528;13.346;2022-12-07T02:55:22;3.83;;;2.20;;
15317;SDS011;7759;52.528;13.346;2022-12-07T03:00:18;6.37;;;3.00;;
15317;SDS011;7759;52.528;13.346;2022-12-07T03:02:48;3.13;;;1.83;;
15317;SDS011;7759;52.528;13.346;2022-12-07T03:05:24;3.43;;;2.10;;
15317;SDS011;7759;52.528;13.346;2022-12-07T03:13:13;2.10;;;1.80;;
15317;SDS011;7759;52.528;13.346;2022-12-07T03:18:17;4.90;;;2.50;;
15317;SDS011;7759;52.528;13.346;2022-12-07T03:20:44;9.10;;;4.13;;
15317;SDS011;7759;52.528;13.346;2022-12-07T03:23:11;3.83;;;2.40;;
15317;SDS011;7759;52.528;13.346;2022-12-07T03:25:41;5.93;;;3.23;;
15317;SDS011;7759;52.528;13.346;2022-12-07T03:28:09;7.97;;;3.63;;
15317;SDS011;7759;52.528;13.346;2022-12-07T03:30:40;6.80;;;3.70;;
15317;SDS011;7759;52.528;13.346;2022-12-07T03:33:12;6.20;;;3.70;;
15317;SDS011;7759;52.528;13.346;2022-12-07T03:35:40;6.00;;;3.47;;
15317;SDS011;7759;52.528;13.346;2022-12-07T03:38:15;5.73;;;3.27;;
15317;SDS011;7759;52.528;13.346;2022-12-07T03:40:44;6.70;;;3.77;;
15317;SDS011;7759;52.528;13.346;2022-12-07T03:43:14;5.20;;;3.10;;
15317;SDS011;7759;52.528;13.346;2022-12-07T03:45:42;5.17;;;3.17;;
15317;SDS011;7759;52.528;13.346;2022-12-07T03:48:25;6.10;;;3.53;;
15317;SDS011;7759;52.528;13.346;2022-12-07T03:50:54;8.60;;;3.93;;
15317;SDS011;7759;52.528;13.346;2022-12-07T03:53:30;7.40;;;3.77;;
15317;SDS011;7759;52.528;13.346;2022-12-07T03:55:57;7.40;;;3.83;;
15317;SDS011;7759;52.528;13.346;2022-12-07T03:58:23;4.50;;;3.13;;
15317;SDS011;7759;52.528;13.346;2022-12-07T04:00:50;5.53;;;2.87;;
15317;SDS011;7759;52.528;13.346;2022-12-07T04:03:16;6.93;;;3.40;;
15317;SDS011;7759;52.528;13.346;2022-12-07T04:05:42;8.70;;;3.00;;
15317;SDS011;7759;52.528;13.346;2022-12-07T04:08:08;17.73;;;8.83;;
15317;SDS011;7759;52.528;13.346;2022-12-07T04:10:34;6.33;;;3.67;;
15317;SDS011;7759;52.528;13.346;2022-12-07T04:13:00;6.13;;;3.53;;
15317;SDS011;7759;52.528;13.346;2022-12-07T04:15:26;11.13;;;4.90;;
15317;SDS011;7759;52.528;13.346;2022-12-07T04:17:52;5.90;;;2.33;;
15317;SDS011;7759;52.528;13.346;2022-12-07T04:20:19;6.00;;;3.70;;
15317;SDS011;7759;52.528;13.346;2022-12-07T04:22:45;7.30;;;4.30;;
15317;SDS011;7759;52.528;13.346;2022-12-07T04:25:11;10.93;;;4.93;;
15317;SDS011;7759;52.528;13.346;2022-12-07T04:27:37;10.00;;;5.13;;
15317;SDS011;7759;52.528;13.346;2022-12-07T04:30:03;6.13;;;3.40;;
15317;SDS011;7759;52.528;13.346;2022-12-07T04:32:29;8.53;;;4.10;;
15317;SDS011;7759;52.528;13.346;2022-12-07T04:34:55;8.90;;;5.13;;
15317;SDS011;7759;52.528;13.346;2022-12-07T04:37:21;5.43;;;3.23;;
15317;SDS011;7759;52.528;13.346;2022-12-07T04:39:47;11.30;;;5.83;;
15317;SDS011;7759;52.528;13.346;2022-12-07T04:42:13;3.93;;;2.47;;
15317;SDS011;7759;52.528;13.346;2022-12-07T04:44:39;10.70;;;6.13;;
15317;SDS011;7759;52.528;13.346;2022-12-07T04:47:05;7.00;;;3.70;;
15317;SDS011;7759;52.528;13.346;2022-12-07T04:49:32;5.27;;;3.23;;
15317;SDS011;7759;52.528;13.346;2022-12-07T04:51:58;6.20;;;2.97;;
15317;SDS011;7759;52.528;13.346;2022-12-07T04:54:24;12.67;;;5.67;;
15317;SDS011;7759;52.528;13.346;2022-12-07T04:56:50;9.40;;;5.53;;
15317;SDS011;7759;52.528;13.346;2022-12-07T04:59:16;4.07;;;2.63;;
15317;SDS011;7759;52.528;13.346;2022-12-07T05:01:42;6.23;;;3.43;;
15317;SDS011;7759;52.528;13.346;2022-12-07T05:04:08;6.10;;;3.33;;
15317;SDS011;7759;52.528;13.346;2022-12-07T05:06:34;12.60;;;4.97;;
15317;SDS011;7759;52.528;13.346;2022-12-07T05:09:00;14.70;;;7.50;;
15317;SDS011;7759;52.528;13.346;2022-12-07T05:11:26;5.30;;;3.23;;
15317;SDS011;7759;52.528;13.346;2022-12-07T05:14:12;7.00;;;3.40;;
15317;SDS011;7759;52.528;13.346;2022-12-07T05:16:38;7.03;;;3.47;;
15317;SDS011;7759;52.528;13.346;2022-12-07T05:19:05;11.57;;;5.53;;
15317;SDS011;7759;52.528;13.346;2022-12-07T05:21:31;9.33;;;4.57;;
15317;SDS011;7759;52.528;13.346;2022-12-07T05:23:57;6.77;;;3.60;;
15317;SDS011;7759;52.528;13.346;2022-12-07T05:26:23;12.50;;;5.83;;
15317;SDS011;7759;52.528;13.346;2022-12-07T05:28:52;6.67;;;4.03;;
15317;SDS011;7759;52.528;13.346;2022-12-07T05:31:18;5.50;;;3.40;;
15317;SDS011;7759;52.528;13.346;2022-12-07T05:33:44;6.50;;;3.60;;
15317;SDS011;7759;52.528;13.346;2022-12-07T05:36:10;7.20;;;3.57;;
15317;SDS011;7759;52.528;13.346;2022-12-07T05:38:36;6.27;;;3.30;;
15317;SDS011;7759;52.528;13.346;2022-12-07T05:41:03;8.07;;;4.20;;
15317;SDS011;7759;52.528;13.346;2022-12-07T05:43:29;7.60;;;3.40;;
15317;SDS011;7759;52.528;13.346;2022-12-07T05:45:55;12.90;;;5.80;;
15317;SDS011;7759;52.528;13.346;2022-12-07T05:48:21;4.93;;;3.40;;
15317;SDS011;7759;52.528;13.346;2022-12-07T05:50:47;9.83;;;3.47;;
15317;SDS011;7759;52.528;13.346;2022-12-07T05:53:13;13.50;;;7.40;;
15317;SDS011;7759;52.528;13.346;2022-12-07T05:55:39;8.33;;;4.27;;
15317;SDS011;7759;52.528;13.346;2022-12-07T05:58:05;11.57;;;4.50;;
15317;SDS011;7759;52.528;13.346;2022-12-07T06:00:50;12.43;;;6.10;;
15317;SDS011;7759;52.528;13.346;2022-12-07T06:03:15;12.27;;;6.10;;
15317;SDS011;7759;52.528;13.346;2022-12-07T06:05:41;8.87;;;4.50;;
15317;SDS011;7759;52.528;13.346;2022-12-07T06:08:07;8.43;;;4.50;;
15317;SDS011;7759;52.528;13.346;2022-12-07T06:10:33;9.60;;;5.10;;
15317;SDS011;7759;52.528;13.346;2022-12-07T06:12:59;12.27;;;5.70;;
15317;SDS011;7759;52.528;13.346;2022-12-07T06:15:26;21.90;;;8.57;;
15317;SDS011;7759;52.528;13.346;2022-12-07T06:17:52;12.13;;;6.07;;
15317;SDS011;7759;52.528;13.346;2022-12-07T06:20:18;8.73;;;5.13;;
15317;SDS011;7759;52.528;13.346;2022-12-07T06:22:44;9.80;;;4.30;;
15317;SDS011;7759;52.528;13.346;2022-12-07T06:25:10;13.40;;;5.77;;
15317;SDS011;7759;52.528;13.346;2022-12-07T06:27:36;15.70;;;7.60;;
15317;SDS011;7759;52.528;13.346;2022-12-07T06:30:02;11.67;;;5.20;;
15317;SDS011;7759;52.528;13.346;2022-12-07T06:32:33;12.27;;;5.87;;
15317;SDS011;7759;52.528;13.346;2022-12-07T06:34:59;14.60;;;6.10;;
15317;SDS011;7759;52.528;13.346;2022-12-07T06:37:25;16.23;;;8.30;;
15317;SDS011;7759;52.528;13.346;2022-12-07T06:39:51;12.60;;;6.43;;
15317;SDS011;7759;52.528;13.346;2022-12-07T06:42:17;10.80;;;6.27;;
15317;SDS011;7759;52.528;13.346;2022-12-07T06:44:43;9.03;;;4.77;;
15317;SDS011;7759;52.528;13.346;2022-12-07T06:47:09;17.37;;;7.87;;
15317;SDS011;7759;52.528;13.346;2022-12-07T06:49:36;11.83;;;5.73;;
15317;SDS011;7759;52.528;13.346;2022-12-07T06:52:02;15.57;;;7.77;;
15317;SDS011;7759;52.528;13.346;2022-12-07T06:54:29;10.20;;;4.97;;
15317;SDS011;7759;52.528;13.346;2022-12-07T06:56:55;11.43;;;5.40;;
15317;SDS011;7759;52.528;13.346;2022-12-07T06:59:21;9.80;;;5.77;;
15317;SDS011;7759;52.528;13.346;2022-12-07T07:01:47;8.77;;;4.80;;
15317;SDS011;7759;52.528;13.346;2022-12-07T07:04:13;14.20;;;6.60;;
15317;SDS011;7759;52.528;13.346;2022-12-07T07:06:39;16.53;;;8.37;;
15317;SDS011;7759;52.528;13.346;2022-12-07T07:09:05;12.23;;;6.83;;
15317;SDS011;7759;52.528;13.346;2022-12-07T07:11:31;15.33;;;7.17;;
15317;SDS011;7759;52.528;13.346;2022-12-07T07:13:57;9.37;;;5.00;;
15317;SDS011;7759;52.528;13.346;2022-12-07T07:16:27;16.33;;;7.57;;
15317;SDS011;7759;52.528;13.346;2022-12-07T07:18:52;8.27;;;5.03;;
15317;SDS011;7759;52.528;13.346;2022-12-07T07:21:18;10.67;;;6.07;;
15317;SDS011;7759;52.528;13.346;2022-12-07T07:23:44;12.57;;;6.20;;
15317;SDS011;7759;52.528;13.346;2022-12-07T07:26:10;8.73;;;4.77;;
15317;SDS011;7759;52.528;13.346;2022-12-07T07:28:36;10.63;;;6.43;;
15317;SDS011;7759;52.528;13.346;2022-12-07T07:31:02;8.63;;;4.07;;
15317;SDS011;7759;52.528;13.346;2022-12-07T07:33:28;13.20;;;5.47;;
15317;SDS011;7759;52.528;13.346;2022-12-07T07:35:54;11.47;;;5.80;;
15317;SDS011;7759;52.528;13.346;2022-12-07T07:38:20;8.57;;;4.80;;
15317;SDS011;7759;52.528;13.346;2022-12-07T07:40:45;13.40;;;7.37;;
15317;SDS011;7759;52.528;13.346;2022-12-07T07:43:11;11.27;;;5.57;;
15317;SDS011;7759;52.528;13.346;2022-12-07T07:45:37;9.23;;;5.57;;
15317;SDS011;7759;52.528;13.346;2022-12-07T07:48:03;10.40;;;5.60;;
15317;SDS011;7759;52.528;13.346;2022-12-07T07:50:29;10.97;;;5.93;;
15317;SDS011;7759;52.528;13.346;2022-12-07T07:52:56;12.07;;;5.70;;
15317;SDS011;7759;52.528;13.346;2022-12-07T07:55:22;10.60;;;5.00;;
15317;SDS011;7759;52.528;13.346;2022-12-07T07:57:48;9.57;;;4.90;;
15317;SDS011;7759;52.528;13.346;2022-12-07T08:00:14;7.93;;;4.20;;
15317;SDS011;7759;52.528;13.346;2022-12-07T08:02:41;9.10;;;4.60;;
15317;SDS011;7759;52.528;13.346;2022-12-07T08:05:08;10.00;;;4.67;;
15317;SDS011;7759;52.528;13.346;2022-12-07T08:07:34;10.43;;;5.27;;
15317;SDS011;7759;52.528;13.346;2022-12-07T08:10:00;6.33;;;4.17;;
15317;SDS011;7759;52.528;13.346;2022-12-07T08:12:26;6.87;;;3.43;;
15317;SDS011;7759;52.528;13.346;2022-12-07T08:14:52;5.90;;;3.43;;
15317;SDS011;7759;52.528;13.346;2022-12-07T08:17:18;6.33;;;3.50;;
15317;SDS011;7759;52.528;13.346;2022-12-07T08:19:44;6.53;;;3.67;;
15317;SDS011;7759;52.528;13.346;2022-12-07T08:22:10;9.37;;;3.90;;
15317;SDS011;7759;52.528;13.346;2022-12-07T08:24:35;10.63;;;4.27;;
15317;SDS011;7759;52.528;13.346;2022-12-07T08:27:02;7.87;;;3.90;;
15317;SDS011;7759;52.528;13.346;2022-12-07T08:29:28;8.23;;;3.17;;
15317;SDS011;7759;52.528;13.346;2022-12-07T08:31:54;5.13;;;3.20;;
15317;SDS011;7759;52.528;13.346;2022-12-07T08:34:20;7.60;;;3.67;;
15317;SDS011;7759;52.528;13.346;2022-12-07T08:36:46;4.23;;;2.83;;
15317;SDS011;7759;52.528;13.346;2022-12-07T08:39:12;4.90;;;3.43;;
15317;SDS011;7759;52.528;13.346;2022-12-07T08:41:38;5.80;;;2.87;;
15317;SDS011;7759;52.528;13.346;2022-12-07T08:44:04;4.50;;;2.50;;
15317;SDS011;7759;52.528;13.346;2022-12-07T08:46:37;4.27;;;2.77;;
15317;SDS011;7759;52.528;13.346;2022-12-07T08:49:16;3.90;;;2.23;;
15317;SDS011;7759;52.528;13.346;2022-12-07T08:51:43;3.40;;;2.37;;
15317;SDS011;7759;52.528;13.346;2022-12-07T08:54:11;4.17;;;2.53;;
15317;SDS011;7759;52.528;13.346;2022-12-07T08:56:37;4.47;;;2.23;;
15317;SDS011;7759;52.528;13.346;2022-12-07T08:59:04;4.13;;;2.20;;
15317;SDS011;7759;52.528;13.346;2022-12-07T09:01:30;3.30;;;2.10;;
15317;SDS011;7759;52.528;13.346;2022-12-07T09:03:57;2.90;;;1.97;;
15317;SDS011;7759;52.528;13.346;2022-12-07T09:06:23;3.83;;;2.13;;
15317;SDS011;7759;52.528;13.346;2022-12-07T09:08:50;6.27;;;1.97;;
15317;SDS011;7759;52.528;13.346;2022-12-07T09:11:16;2.17;;;1.77;;
15317;SDS011;7759;52.528;13.346;2022-12-07T09:13:42;2.23;;;1.70;;
15317;SDS011;7759;52.528;13.346;2022-12-07T09:16:08;2.53;;;1.97;;
15317;SDS011;7759;52.528;13.346;2022-12-07T09:18:34;4.17;;;1.70;;
15317;SDS011;7759;52.528;13.346;2022-12-07T09:21:00;1.83;;;1.33;;
15317;SDS011;7759;52.528;13.346;2022-12-07T09:23:26;1.43;;;1.33;;
15317;SDS011;7759;52.528;13.346;2022-12-07T09:25:52;5.47;;;1.60;;
15317;SDS011;7759;52.528;13.346;2022-12-07T09:28:18;2.50;;;1.70;;
15317;SDS011;7759;52.528;13.346;2022-12-07T09:30:47;2.07;;;1.63;;
15317;SDS011;7759;52.528;13.346;2022-12-07T09:33:13;4.53;;;1.87;;
15317;SDS011;7759;52.528;13.346;2022-12-07T09:35:44;3.57;;;1.77;;
15317;SDS011;7759;52.528;13.346;2022-12-07T09:38:11;4.27;;;1.87;;
15317;SDS011;7759;52.528;13.346;2022-12-07T09:40:38;3.63;;;1.73;;
15317;SDS011;7759;52.528;13.346;2022-12-07T09:43:04;2.47;;;2.00;;
15317;SDS011;7759;52.528;13.346;2022-12-07T09:45:34;4.20;;;2.13;;
15317;SDS011;7759;52.528;13.346;2022-12-07T09:48:02;2.97;;;1.50;;
15317;SDS011;7759;52.528;13.346;2022-12-07T09:50:28;3.67;;;2.27;;
15317;SDS011;7759;52.528;13.346;2022-12-07T09:52:58;2.47;;;2.07;;
15317;SDS011;7759;52.528;13.346;2022-12-07T09:55:29;2.60;;;1.40;;
15317;SDS011;7759;52.528;13.346;2022-12-07T09:57:57;5.23;;;2.33;;
15317;SDS011;7759;52.528;13.346;2022-12-07T10:00:24;3.63;;;1.90;;
15317;SDS011;7759;52.528;13.346;2022-12-07T10:02:53;2.43;;;1.60;;
15317;SDS011;7759;52.528;13.346;2022-12-07T10:05:22;3.40;;;1.93;;
15317;SDS011;7759;52.528;13.346;2022-12-07T10:07:49;1.93;;;1.63;;
15317;SDS011;7759;52.528;13.346;2022-12-07T10:10:17;4.47;;;1.90;;
15317;SDS011;7759;52.528;13.346;2022-12-07T10:13:02;2.77;;;1.87;;
15317;SDS011;7759;52.528;13.346;2022-12-07T10:18:33;7.77;;;2.10;;
15317;SDS011;7759;52.528;13.346;2022-12-07T10:21:04;4.80;;;2.10;;
15317;SDS011;7759;52.528;13.346;2022-12-07T10:23:32;5.80;;;2.00;;
15317;SDS011;7759;52.528;13.346;2022-12-07T10:25:58;10.13;;;3.43;;
15317;SDS011;7759;52.528;13.346;2022-12-07T10:28:27;3.30;;;2.00;;
15317;SDS011;7759;52.528;13.346;2022-12-07T10:30:59;6.53;;;2.37;;
15317;SDS011;7759;52.528;13.346;2022-12-07T10:33:31;4.63;;;2.03;;
15317;SDS011;7759;52.528;13.346;2022-12-07T10:35:57;4.27;;;2.40;;
15317;SDS011;7759;52.528;13.346;2022-12-07T10:38:24;9.83;;;3.80;;
15317;SDS011;7759;52.528;13.346;2022-12-07T10:41:02;6.80;;;3.20;;
15317;SDS011;7759;52.528;13.346;2022-12-07T10:43:28;5.80;;;3.30;;
15317;SDS011;7759;52.528;13.346;2022-12-07T10:46:00;7.97;;;4.00;;
15317;SDS011;7759;52.528;13.346;2022-12-07T10:48:48;6.53;;;3.10;;
15317;SDS011;7759;52.528;13.346;2022-12-07T10:51:34;5.33;;;2.83;;
15317;SDS011;7759;52.528;13.346;2022-12-07T10:57:05;5.43;;;2.93;;
15317;SDS011;7759;52.528;13.346;2022-12-07T10:59:42;6.20;;;3.23;;
15317;SDS011;7759;52.528;13.346;2022-12-07T11:02:24;11.43;;;3.63;;
15317;SDS011;7759;52.528;13.346;2022-12-07T11:09:51;20.93;;;9.17;;
15317;SDS011;7759;52.528;13.346;2022-12-07T11:15:00;15.63;;;7.20;;
15317;SDS011;7759;52.528;13.346;2022-12-07T11:20:01;12.60;;;5.50;;
15317;SDS011;7759;52.528;13.346;2022-12-07T11:22:43;5.30;;;3.50;;
15317;SDS011;7759;52.528;13.346;2022-12-07T11:27:44;5.93;;;3.60;;
15317;SDS011;7759;52.528;13.346;2022-12-07T11:30:14;4.90;;;2.90;;
15317;SDS011;7759;52.528;13.346;2022-12-07T11:32:57;6.03;;;3.03;;
15317;SDS011;7759;52.528;13.346;2022-12-07T11:35:38;4.13;;;2.77;;
15317;SDS011;7759;52.528;13.346;2022-12-07T11:38:14;6.53;;;3.23;;
15317;SDS011;7759;52.528;13.346;2022-12-07T11:40:43;5.07;;;3.20;;
15317;SDS011;7759;52.528;13.346;2022-12-07T11:45:54;7.43;;;3.73;;
15317;SDS011;7759;52.528;13.346;2022-12-07T11:48:46;8.20;;;3.70;;
15317;SDS011;7759;52.528;13.346;2022-12-07T11:51:10;9.33;;;4.10;;
15317;SDS011;7759;52.528;13.346;2022-12-07T11:53:47;4.00;;;2.97;;
15317;SDS011;7759;52.528;13.346;2022-12-07T11:56:17;6.77;;;3.70;;
15317;SDS011;7759;52.528;13.346;2022-12-07T11:58:48;6.60;;;3.67;;
15317;SDS011;7759;52.528;13.346;2022-12-07T12:03:42;20.60;;;6.70;;
15317;SDS011;7759;52.528;13.346;2022-12-07T12:06:09;15.10;;;4.97;;
15317;SDS011;7759;52.528;13.346;2022-12-07T12:08:38;9.93;;;4.13;;
15317;SDS011;7759;52.528;13.346;2022-12-07T12:14:10;18.30;;;6.57;;
15317;SDS011;7759;52.528;13.346;2022-12-07T12:19:25;12.87;;;4.17;;
15317;SDS011;7759;52.528;13.346;2022-12-07T12:21:57;15.83;;;5.10;;
15317;SDS011;7759;52.528;13.346;2022-12-07T12:24:26;8.30;;;3.77;;
15317;SDS011;7759;52.528;13.346;2022-12-07T12:27:05;22.63;;;6.20;;
15317;SDS011;7759;52.528;13.346;2022-12-07T12:29:33;13.83;;;5.27;;
15317;SDS011;7759;52.528;13.346;2022-12-07T12:42:46;10.07;;;3.07;;
15317;SDS011;7759;52.528;13.346;2022-12-07T12:45:22;8.83;;;3.70;;
15317;SDS011;7759;52.528;13.346;2022-12-07T12:50:25;8.70;;;3.50;;
15317;SDS011;7759;52.528;13.346;2022-12-07T12:52:53;6.53;;;2.63;;
15317;SDS011;7759;52.528;13.346;2022-12-07T12:55:21;8.80;;;3.07;;
15317;SDS011;7759;52.528;13.346;2022-12-07T13:00:34;11.60;;;3.43;;
15317;SDS011;7759;52.528;13.346;2022-12-07T13:03:00;7.27;;;3.57;;
15317;SDS011;7759;52.528;13.346;2022-12-07T13:05:27;10.50;;;4.13;;
15317;SDS011;7759;52.528;13.346;2022-12-07T13:07:58;11.50;;;4.63;;
15317;SDS011;7759;52.528;13.346;2022-12-07T13:15:54;6.37;;;2.80;;
15317;SDS011;7759;52.528;13.346;2022-12-07T13:18:40;5.33;;;2.47;;
15317;SDS011;7759;52.528;13.346;2022-12-07T13:26:20;10.17;;;3.67;;
15317;SDS011;7759;52.528;13.346;2022-12-07T13:28:50;8.87;;;3.87;;
15317;SDS011;7759;52.528;13.346;2022-12-07T13:31:22;6.93;;;2.53;;
15317;SDS011;7759;52.528;13.346;2022-12-07T13:33:49;7.20;;;3.40;;
15317;SDS011;7759;52.528;13.346;2022-12-07T13:36:19;8.77;;;2.47;;
15317;SDS011;7759;52.528;13.346;2022-12-07T13:38:50;5.33;;;2.20;;
15317;SDS011;7759;52.528;13.346;2022-12-07T13:41:18;4.50;;;2.50;;
15317;SDS011;7759;52.528;13.346;2022-12-07T13:43:45;5.40;;;1.87;;
15317;SDS011;7759;52.528;13.346;2022-12-07T13:46:11;7.50;;;3.03;;
15317;SDS011;7759;52.528;13.346;2022-12-07T13:48:49;6.17;;;3.57;;
15317;SDS011;7759;52.528;13.346;2022-12-07T13:51:20;6.13;;;2.20;;
15317;SDS011;7759;52.528;13.346;2022-12-07T13:53:47;5.73;;;2.53;;
15317;SDS011;7759;52.528;13.346;2022-12-07T13:56:13;3.60;;;2.00;;
15317;SDS011;7759;52.528;13.346;2022-12-07T13:58:40;4.53;;;1.93;;
15317;SDS011;7759;52.528;13.346;2022-12-07T14:01:06;4.07;;;2.13;;
15317;SDS011;7759;52.528;13.346;2022-12-07T14:03:33;5.03;;;1.70;;
15317;SDS011;7759;52.528;13.346;2022-12-07T14:06:32;5.13;;;1.90;;
15317;SDS011;7759;52.528;13.346;2022-12-07T14:09:09;7.50;;;3.20;;
15317;SDS011;7759;52.528;13.346;2022-12-07T14:11:35;2.90;;;1.80;;
15317;SDS011;7759;52.528;13.346;2022-12-07T14:14:01;6.27;;;2.13;;
15317;SDS011;7759;52.528;13.346;2022-12-07T14:16:36;4.53;;;1.70;;
15317;SDS011;7759;52.528;13.346;2022-12-07T14:19:04;5.77;;;2.47;;
15317;SDS011;7759;52.528;13.346;2022-12-07T14:21:31;5.03;;;1.87;;
15317;SDS011;7759;52.528;13.346;2022-12-07T14:24:17;8.43;;;1.90;;
15317;SDS011;7759;52.528;13.346;2022-12-07T14:26:44;6.37;;;2.47;;
15317;SDS011;7759;52.528;13.346;2022-12-07T14:31:53;5.80;;;1.90;;
15317;SDS011;7759;52.528;13.346;2022-12-07T14:34:20;2.53;;;1.60;;
15317;SDS011;7759;52.528;13.346;2022-12-07T14:36:46;5.47;;;2.10;;
15317;SDS011;7759;52.528;13.346;2022-12-07T14:39:12;6.47;;;1.90;;
15317;SDS011;7759;52.528;13.346;2022-12-07T14:41:38;4.07;;;1.80;;
15317;SDS011;7759;52.528;13.346;2022-12-07T14:44:16;2.10;;;1.40;;
15317;SDS011;7759;52.528;13.346;2022-12-07T14:46:42;3.57;;;2.00;;
15317;SDS011;7759;52.528;13.346;2022-12-07T14:49:08;4.13;;;1.90;;
15317;SDS011;7759;52.528;13.346;2022-12-07T14:51:35;4.10;;;2.33;;
15317;SDS011;7759;52.528;13.346;2022-12-07T14:54:01;10.20;;;2.13;;
15317;SDS011;7759;52.528;13.346;2022-12-07T14:56:29;12.40;;;5.50;;
15317;SDS011;7759;52.528;13.346;2022-12-07T14:58:55;2.67;;;1.30;;
15317;SDS011;7759;52.528;13.346;2022-12-07T15:01:21;6.40;;;2.00;;
15317;SDS011;7759;52.528;13.346;2022-12-07T15:03:46;2.57;;;1.20;;
15317;SDS011;7759;52.528;13.346;2022-12-07T15:06:13;3.13;;;1.50;;
15317;SDS011;7759;52.528;13.346;2022-12-07T15:08:39;4.22;;;1.70;;
15317;SDS011;7759;52.528;13.346;2022-12-07T15:11:05;4.83;;;1.57;;
15317;SDS011;7759;52.528;13.346;2022-12-07T15:13:31;5.13;;;1.90;;
15317;SDS011;7759;52.528;13.346;2022-12-07T15:16:16;3.27;;;1.50;;
15317;SDS011;7759;52.528;13.346;2022-12-07T15:18:43;7.47;;;1.77;;
15317;SDS011;7759;52.528;13.346;2022-12-07T15:21:13;8.00;;;1.83;;
15317;SDS011;7759;52.528;13.346;2022-12-07T15:23:39;9.90;;;2.30;;
15317;SDS011;7759;52.528;13.346;2022-12-07T15:26:05;3.97;;;1.90;;
15317;SDS011;7759;52.528;13.346;2022-12-07T15:28:32;3.63;;;1.40;;
15317;SDS011;7759;52.528;13.346;2022-12-07T15:30:58;4.10;;;1.40;;
15317;SDS011;7759;52.528;13.346;2022-12-07T15:33:24;3.43;;;1.47;;
15317;SDS011;7759;52.528;13.346;2022-12-07T15:35:50;3.80;;;1.40;;
15317;SDS011;7759;52.528;13.346;2022-12-07T15:38:16;3.60;;;1.13;;
15317;SDS011;7759;52.528;13.346;2022-12-07T15:40:42;5.10;;;1.87;;
15317;SDS011;7759;52.528;13.346;2022-12-07T15:43:08;4.97;;;1.60;;
15317;SDS011;7759;52.528;13.346;2022-12-07T15:45:54;5.00;;;1.23;;
15317;SDS011;7759;52.528;13.346;2022-12-07T15:48:20;2.37;;;1.10;;
15317;SDS011;7759;52.528;13.346;2022-12-07T15:50:46;2.90;;;1.30;;
15317;SDS011;7759;52.528;13.346;2022-12-07T15:53:12;5.73;;;1.30;;
15317;SDS011;7759;52.528;13.346;2022-12-07T15:55:38;3.93;;;1.47;;
15317;SDS011;7759;52.528;13.346;2022-12-07T15:58:05;7.73;;;2.10;;
15317;SDS011;7759;52.528;13.346;2022-12-07T16:00:31;3.07;;;1.73;;
15317;SDS011;7759;52.528;13.346;2022-12-07T16:02:57;4.37;;;1.63;;
15317;SDS011;7759;52.528;13.346;2022-12-07T16:05:23;2.20;;;1.30;;
15317;SDS011;7759;52.528;13.346;2022-12-07T16:07:49;9.67;;;1.90;;
15317;SDS011;7759;52.528;13.346;2022-12-07T16:10:14;4.70;;;1.20;;
15317;SDS011;7759;52.528;13.346;2022-12-07T16:12:40;6.60;;;1.80;;